sensor_id;sensor_type;location;lat;lon;timestamp;P1;durP1;ratioP1;P2;durP2;ratioP2
49139;SDS011;34959;49.310;8.646;2024-03-07T00:00:20;2.33;;;1.70;;
49139;SDS011;34959;49.310;8.646;2024-03-07T00:02:50;2.25;;;1.67;;
49139;SDS011;34959;49.310;8.646;2024-03-07T00:05:20;1.90;;;1.45;;
49139;SDS011;34959;49.310;8.646;2024-03-07T00:07:47;2.17;;;1.50;;
49139;SDS011;34959;49.310;8.646;2024-03-07T00:10:13;2.22;;;1.40;;
49139;SDS011;34959;49.310;8.646;2024-03-07T00:12:40;2.63;;;1.88;;
49139;SDS011;34959;49.310;8.646;2024-03-07T00:15:09;2.08;;;1.60;;
49139;SDS011;34959;49.310;8.646;2024-03-07T00:17:37;2.08;;;1.55;;
49139;SDS011;34959;49.310;8.646;2024-03-07T00:20:03;2.25;;;1.45;;
49139;SDS011;34959;49.310;8.646;2024-03-07T00:22:32;1.88;;;1.20;;
49139;SDS011;34959;49.310;8.646;2024-03-07T00:24:58;2.88;;;1.10;;
49139;SDS011;34959;49.310;8.646;2024-03-07T00:27:24;1.65;;;1.10;;
49139;SDS011;34959;49.310;8.646;2024-03-07T00:29:51;1.85;;;1.30;;
49139;SDS011;34959;49.310;8.646;2024-03-07T00:32:20;2.13;;;1.30;;
49139;SDS011;34959;49.310;8.646;2024-03-07T00:34:45;2.67;;;1.10;;
49139;SDS011;34959;49.310;8.646;2024-03-07T00:37:11;2.00;;;1.13;;
49139;SDS011;34959;49.310;8.646;2024-03-07T00:39:38;1.45;;;1.10;;
49139;SDS011;34959;49.310;8.646;2024-03-07T00:42:03;1.25;;;0.88;;
49139;SDS011;34959;49.310;8.646;2024-03-07T00:44:28;2.65;;;0.95;;
49139;SDS011;34959;49.310;8.646;2024-03-07T00:46:54;2.35;;;1.20;;
49139;SDS011;34959;49.310;8.646;2024-03-07T00:49:19;1.33;;;0.90;;
49139;SDS011;34959;49.310;8.646;2024-03-07T00:51:46;1.20;;;1.00;;
49139;SDS011;34959;49.310;8.646;2024-03-07T00:54:11;0.95;;;0.70;;
49139;SDS011;34959;49.310;8.646;2024-03-07T00:56:38;1.52;;;1.00;;
49139;SDS011;34959;49.310;8.646;2024-03-07T00:59:04;1.13;;;1.00;;
49139;SDS011;34959;49.310;8.646;2024-03-07T01:01:30;1.20;;;1.00;;
49139;SDS011;34959;49.310;8.646;2024-03-07T01:03:57;2.53;;;0.82;;
49139;SDS011;34959;49.310;8.646;2024-03-07T01:06:23;1.20;;;0.80;;
49139;SDS011;34959;49.310;8.646;2024-03-07T01:08:48;1.58;;;0.93;;
49139;SDS011;34959;49.310;8.646;2024-03-07T01:11:14;1.00;;;0.80;;
49139;SDS011;34959;49.310;8.646;2024-03-07T01:13:39;0.95;;;0.70;;
49139;SDS011;34959;49.310;8.646;2024-03-07T01:16:05;1.00;;;0.80;;
49139;SDS011;34959;49.310;8.646;2024-03-07T01:18:31;1.00;;;0.82;;
49139;SDS011;34959;49.310;8.646;2024-03-07T01:20:59;1.10;;;0.80;;
49139;SDS011;34959;49.310;8.646;2024-03-07T01:23:25;1.38;;;0.90;;
49139;SDS011;34959;49.310;8.646;2024-03-07T01:25:53;0.98;;;0.65;;
49139;SDS011;34959;49.310;8.646;2024-03-07T01:28:20;1.55;;;0.70;;
49139;SDS011;34959;49.310;8.646;2024-03-07T01:30:47;1.00;;;0.70;;
49139;SDS011;34959;49.310;8.646;2024-03-07T01:33:13;1.10;;;0.75;;
49139;SDS011;34959;49.310;8.646;2024-03-07T01:35:38;6.93;;;1.60;;
49139;SDS011;34959;49.310;8.646;2024-03-07T01:38:03;2.70;;;0.95;;
49139;SDS011;34959;49.310;8.646;2024-03-07T01:40:29;4.60;;;0.95;;
49139;SDS011;34959;49.310;8.646;2024-03-07T01:42:54;1.67;;;1.00;;
49139;SDS011;34959;49.310;8.646;2024-03-07T01:45:20;4.95;;;1.20;;
49139;SDS011;34959;49.310;8.646;2024-03-07T01:47:45;2.15;;;1.20;;
49139;SDS011;34959;49.310;8.646;2024-03-07T01:50:10;4.97;;;1.20;;
49139;SDS011;34959;49.310;8.646;2024-03-07T01:52:38;1.98;;;1.10;;
49139;SDS011;34959;49.310;8.646;2024-03-07T01:55:05;1.58;;;0.90;;
49139;SDS011;34959;49.310;8.646;2024-03-07T01:57:31;3.53;;;0.88;;
49139;SDS011;34959;49.310;8.646;2024-03-07T01:59:56;2.88;;;1.30;;
49139;SDS011;34959;49.310;8.646;2024-03-07T02:02:22;3.00;;;1.42;;
49139;SDS011;34959;49.310;8.646;2024-03-07T02:04:47;2.55;;;1.30;;
49139;SDS011;34959;49.310;8.646;2024-03-07T02:07:13;3.10;;;1.10;;
49139;SDS011;34959;49.310;8.646;2024-03-07T02:09:38;1.60;;;1.00;;
49139;SDS011;34959;49.310;8.646;2024-03-07T02:12:03;2.33;;;1.38;;
49139;SDS011;34959;49.310;8.646;2024-03-07T02:14:29;1.83;;;1.08;;
49139;SDS011;34959;49.310;8.646;2024-03-07T02:16:55;3.20;;;1.02;;
49139;SDS011;34959;49.310;8.646;2024-03-07T02:19:21;2.92;;;1.33;;
49139;SDS011;34959;49.310;8.646;2024-03-07T02:21:47;2.30;;;1.45;;
49139;SDS011;34959;49.310;8.646;2024-03-07T02:24:12;2.63;;;1.25;;
49139;SDS011;34959;49.310;8.646;2024-03-07T02:26:39;1.98;;;1.30;;
49139;SDS011;34959;49.310;8.646;2024-03-07T02:29:05;3.70;;;1.30;;
49139;SDS011;34959;49.310;8.646;2024-03-07T02:31:30;2.72;;;1.25;;
49139;SDS011;34959;49.310;8.646;2024-03-07T02:34:05;2.27;;;1.50;;
49139;SDS011;34959;49.310;8.646;2024-03-07T02:36:32;3.40;;;1.60;;
49139;SDS011;34959;49.310;8.646;2024-03-07T02:38:58;2.80;;;1.55;;
49139;SDS011;34959;49.310;8.646;2024-03-07T02:41:24;2.05;;;1.42;;
49139;SDS011;34959;49.310;8.646;2024-03-07T02:43:50;2.15;;;1.48;;
49139;SDS011;34959;49.310;8.646;2024-03-07T02:46:16;2.10;;;1.45;;
49139;SDS011;34959;49.310;8.646;2024-03-07T02:48:42;1.77;;;1.48;;
49139;SDS011;34959;49.310;8.646;2024-03-07T02:51:07;3.45;;;1.40;;
49139;SDS011;34959;49.310;8.646;2024-03-07T02:53:32;2.17;;;1.50;;
49139;SDS011;34959;49.310;8.646;2024-03-07T02:55:58;2.28;;;1.40;;
49139;SDS011;34959;49.310;8.646;2024-03-07T02:58:23;2.70;;;1.58;;
49139;SDS011;34959;49.310;8.646;2024-03-07T03:00:58;2.15;;;1.50;;
49139;SDS011;34959;49.310;8.646;2024-03-07T03:03:25;1.88;;;1.25;;
49139;SDS011;34959;49.310;8.646;2024-03-07T03:05:53;2.33;;;1.50;;
49139;SDS011;34959;49.310;8.646;2024-03-07T03:08:18;2.05;;;1.50;;
49139;SDS011;34959;49.310;8.646;2024-03-07T03:10:43;2.30;;;1.63;;
49139;SDS011;34959;49.310;8.646;2024-03-07T03:13:09;2.30;;;1.55;;
49139;SDS011;34959;49.310;8.646;2024-03-07T03:15:34;2.42;;;1.50;;
49139;SDS011;34959;49.310;8.646;2024-03-07T03:18:00;2.58;;;1.70;;
49139;SDS011;34959;49.310;8.646;2024-03-07T03:20:26;2.35;;;1.48;;
49139;SDS011;34959;49.310;8.646;2024-03-07T03:22:56;2.00;;;1.63;;
49139;SDS011;34959;49.310;8.646;2024-03-07T03:25:21;2.28;;;1.70;;
49139;SDS011;34959;49.310;8.646;2024-03-07T03:27:48;1.83;;;1.63;;
49139;SDS011;34959;49.310;8.646;2024-03-07T03:30:14;3.70;;;1.65;;
49139;SDS011;34959;49.310;8.646;2024-03-07T03:32:41;3.00;;;1.55;;
49139;SDS011;34959;49.310;8.646;2024-03-07T03:35:07;3.67;;;1.55;;
49139;SDS011;34959;49.310;8.646;2024-03-07T03:37:38;2.38;;;1.60;;
49139;SDS011;34959;49.310;8.646;2024-03-07T03:40:07;2.17;;;1.70;;
49139;SDS011;34959;49.310;8.646;2024-03-07T03:42:34;2.90;;;1.90;;
49139;SDS011;34959;49.310;8.646;2024-03-07T03:45:01;2.33;;;1.67;;
49139;SDS011;34959;49.310;8.646;2024-03-07T03:47:28;1.67;;;1.55;;
49139;SDS011;34959;49.310;8.646;2024-03-07T03:49:54;2.22;;;1.70;;
49139;SDS011;34959;49.310;8.646;2024-03-07T03:52:20;2.08;;;1.63;;
49139;SDS011;34959;49.310;8.646;2024-03-07T03:54:45;2.33;;;1.60;;
49139;SDS011;34959;49.310;8.646;2024-03-07T03:57:11;2.75;;;1.88;;
49139;SDS011;34959;49.310;8.646;2024-03-07T03:59:36;2.33;;;1.65;;
49139;SDS011;34959;49.310;8.646;2024-03-07T04:02:03;2.53;;;1.90;;
49139;SDS011;34959;49.310;8.646;2024-03-07T04:04:29;2.30;;;1.83;;
49139;SDS011;34959;49.310;8.646;2024-03-07T04:06:55;2.75;;;2.10;;
49139;SDS011;34959;49.310;8.646;2024-03-07T04:09:20;2.38;;;2.00;;
49139;SDS011;34959;49.310;8.646;2024-03-07T04:11:46;2.30;;;2.00;;
49139;SDS011;34959;49.310;8.646;2024-03-07T04:14:11;2.45;;;1.70;;
49139;SDS011;34959;49.310;8.646;2024-03-07T04:16:36;2.88;;;1.90;;
49139;SDS011;34959;49.310;8.646;2024-03-07T04:19:02;2.38;;;1.88;;
49139;SDS011;34959;49.310;8.646;2024-03-07T04:21:27;2.60;;;1.90;;
49139;SDS011;34959;49.310;8.646;2024-03-07T04:23:52;2.33;;;1.70;;
49139;SDS011;34959;49.310;8.646;2024-03-07T04:26:18;2.50;;;2.10;;
49139;SDS011;34959;49.310;8.646;2024-03-07T04:28:43;2.55;;;1.80;;
49139;SDS011;34959;49.310;8.646;2024-03-07T04:31:09;2.00;;;1.80;;
49139;SDS011;34959;49.310;8.646;2024-03-07T04:33:34;2.13;;;1.80;;
49139;SDS011;34959;49.310;8.646;2024-03-07T04:36:00;4.40;;;2.00;;
49139;SDS011;34959;49.310;8.646;2024-03-07T04:38:27;2.20;;;1.90;;
49139;SDS011;34959;49.310;8.646;2024-03-07T04:40:53;2.30;;;1.85;;
49139;SDS011;34959;49.310;8.646;2024-03-07T04:43:19;2.45;;;2.05;;
49139;SDS011;34959;49.310;8.646;2024-03-07T04:45:44;2.30;;;1.83;;
49139;SDS011;34959;49.310;8.646;2024-03-07T04:48:10;2.65;;;1.90;;
49139;SDS011;34959;49.310;8.646;2024-03-07T04:50:36;2.08;;;1.88;;
49139;SDS011;34959;49.310;8.646;2024-03-07T04:53:01;2.33;;;1.98;;
49139;SDS011;34959;49.310;8.646;2024-03-07T04:55:27;2.63;;;1.88;;
49139;SDS011;34959;49.310;8.646;2024-03-07T04:57:52;2.83;;;2.20;;
49139;SDS011;34959;49.310;8.646;2024-03-07T05:00:17;2.53;;;2.13;;
49139;SDS011;34959;49.310;8.646;2024-03-07T05:02:45;2.88;;;2.08;;
49139;SDS011;34959;49.310;8.646;2024-03-07T05:05:14;2.85;;;2.00;;
49139;SDS011;34959;49.310;8.646;2024-03-07T05:07:43;2.35;;;1.80;;
49139;SDS011;34959;49.310;8.646;2024-03-07T05:10:09;3.20;;;2.10;;
49139;SDS011;34959;49.310;8.646;2024-03-07T05:12:34;2.42;;;1.90;;
49139;SDS011;34959;49.310;8.646;2024-03-07T05:15:01;2.47;;;1.98;;
49139;SDS011;34959;49.310;8.646;2024-03-07T05:17:29;2.40;;;1.92;;
49139;SDS011;34959;49.310;8.646;2024-03-07T05:19:56;2.72;;;2.08;;
49139;SDS011;34959;49.310;8.646;2024-03-07T05:22:21;2.95;;;1.98;;
49139;SDS011;34959;49.310;8.646;2024-03-07T05:24:50;3.33;;;2.20;;
49139;SDS011;34959;49.310;8.646;2024-03-07T05:27:16;2.70;;;2.20;;
49139;SDS011;34959;49.310;8.646;2024-03-07T05:29:41;2.33;;;1.83;;
49139;SDS011;34959;49.310;8.646;2024-03-07T05:32:22;2.17;;;1.98;;
49139;SDS011;34959;49.310;8.646;2024-03-07T05:34:49;2.35;;;2.13;;
49139;SDS011;34959;49.310;8.646;2024-03-07T05:37:15;3.17;;;2.00;;
49139;SDS011;34959;49.310;8.646;2024-03-07T05:39:40;3.35;;;2.10;;
49139;SDS011;34959;49.310;8.646;2024-03-07T05:42:06;8.18;;;2.35;;
49139;SDS011;34959;49.310;8.646;2024-03-07T05:44:32;5.10;;;2.03;;
49139;SDS011;34959;49.310;8.646;2024-03-07T05:46:58;4.25;;;1.92;;
49139;SDS011;34959;49.310;8.646;2024-03-07T05:49:23;4.35;;;2.17;;
49139;SDS011;34959;49.310;8.646;2024-03-07T05:51:49;2.30;;;2.10;;
49139;SDS011;34959;49.310;8.646;2024-03-07T05:54:14;2.72;;;2.13;;
49139;SDS011;34959;49.310;8.646;2024-03-07T05:56:40;2.60;;;1.98;;
49139;SDS011;34959;49.310;8.646;2024-03-07T05:59:09;2.92;;;2.03;;
49139;SDS011;34959;49.310;8.646;2024-03-07T06:01:35;2.58;;;1.92;;
49139;SDS011;34959;49.310;8.646;2024-03-07T06:04:01;3.90;;;2.00;;
49139;SDS011;34959;49.310;8.646;2024-03-07T06:06:33;2.63;;;2.00;;
49139;SDS011;34959;49.310;8.646;2024-03-07T06:09:13;5.03;;;2.10;;
49139;SDS011;34959;49.310;8.646;2024-03-07T06:11:49;2.10;;;1.80;;
49139;SDS011;34959;49.310;8.646;2024-03-07T06:14:19;2.38;;;2.10;;
49139;SDS011;34959;49.310;8.646;2024-03-07T06:16:48;2.63;;;2.05;;
49139;SDS011;34959;49.310;8.646;2024-03-07T06:19:18;2.17;;;1.98;;
49139;SDS011;34959;49.310;8.646;2024-03-07T06:21:47;2.35;;;2.00;;
49139;SDS011;34959;49.310;8.646;2024-03-07T06:24:13;3.05;;;2.08;;
49139;SDS011;34959;49.310;8.646;2024-03-07T06:26:40;2.95;;;1.83;;
49139;SDS011;34959;49.310;8.646;2024-03-07T06:29:17;3.17;;;2.10;;
49139;SDS011;34959;49.310;8.646;2024-03-07T06:31:42;2.60;;;1.98;;
49139;SDS011;34959;49.310;8.646;2024-03-07T06:34:08;2.25;;;1.92;;
49139;SDS011;34959;49.310;8.646;2024-03-07T06:36:34;2.42;;;2.00;;
49139;SDS011;34959;49.310;8.646;2024-03-07T06:39:00;3.28;;;2.22;;
49139;SDS011;34959;49.310;8.646;2024-03-07T06:41:26;2.80;;;2.05;;
49139;SDS011;34959;49.310;8.646;2024-03-07T06:43:51;2.15;;;1.70;;
49139;SDS011;34959;49.310;8.646;2024-03-07T06:46:20;1.95;;;1.75;;
49139;SDS011;34959;49.310;8.646;2024-03-07T06:48:45;2.70;;;2.10;;
49139;SDS011;34959;49.310;8.646;2024-03-07T06:51:11;2.42;;;2.13;;
49139;SDS011;34959;49.310;8.646;2024-03-07T06:53:37;2.55;;;2.03;;
49139;SDS011;34959;49.310;8.646;2024-03-07T06:56:02;2.55;;;2.17;;
49139;SDS011;34959;49.310;8.646;2024-03-07T06:58:28;2.92;;;2.00;;
49139;SDS011;34959;49.310;8.646;2024-03-07T07:00:54;2.67;;;2.10;;
49139;SDS011;34959;49.310;8.646;2024-03-07T07:03:20;4.72;;;2.17;;
49139;SDS011;34959;49.310;8.646;2024-03-07T07:05:46;10.13;;;2.00;;
49139;SDS011;34959;49.310;8.646;2024-03-07T07:08:11;2.80;;;2.05;;
49139;SDS011;34959;49.310;8.646;2024-03-07T07:10:38;2.92;;;2.10;;
49139;SDS011;34959;49.310;8.646;2024-03-07T07:13:05;1.85;;;1.65;;
49139;SDS011;34959;49.310;8.646;2024-03-07T07:15:31;2.78;;;2.17;;
49139;SDS011;34959;49.310;8.646;2024-03-07T07:17:57;2.75;;;2.10;;
49139;SDS011;34959;49.310;8.646;2024-03-07T07:20:22;2.08;;;1.80;;
49139;SDS011;34959;49.310;8.646;2024-03-07T07:22:49;4.80;;;2.25;;
49139;SDS011;34959;49.310;8.646;2024-03-07T07:25:14;2.35;;;2.00;;
49139;SDS011;34959;49.310;8.646;2024-03-07T07:27:50;2.00;;;1.75;;
49139;SDS011;34959;49.310;8.646;2024-03-07T07:30:21;2.80;;;2.22;;
49139;SDS011;34959;49.310;8.646;2024-03-07T07:32:47;2.10;;;1.90;;
49139;SDS011;34959;49.310;8.646;2024-03-07T07:35:13;4.10;;;2.08;;
49139;SDS011;34959;49.310;8.646;2024-03-07T07:37:44;14.98;;;2.20;;
49139;SDS011;34959;49.310;8.646;2024-03-07T07:40:12;7.45;;;2.00;;
49139;SDS011;34959;49.310;8.646;2024-03-07T07:42:39;3.28;;;2.10;;
49139;SDS011;34959;49.310;8.646;2024-03-07T07:45:07;3.53;;;2.45;;
49139;SDS011;34959;49.310;8.646;2024-03-07T07:47:37;2.20;;;1.70;;
49139;SDS011;34959;49.310;8.646;2024-03-07T07:50:06;2.70;;;2.20;;
49139;SDS011;34959;49.310;8.646;2024-03-07T07:52:39;3.15;;;2.10;;
49139;SDS011;34959;49.310;8.646;2024-03-07T07:55:05;2.60;;;1.80;;
49139;SDS011;34959;49.310;8.646;2024-03-07T07:57:36;2.97;;;2.10;;
49139;SDS011;34959;49.310;8.646;2024-03-07T08:00:01;2.45;;;1.90;;
49139;SDS011;34959;49.310;8.646;2024-03-07T08:02:27;3.42;;;1.70;;
49139;SDS011;34959;49.310;8.646;2024-03-07T08:04:53;2.75;;;2.15;;
49139;SDS011;34959;49.310;8.646;2024-03-07T08:07:18;5.47;;;2.70;;
49139;SDS011;34959;49.310;8.646;2024-03-07T08:09:43;3.53;;;1.95;;
49139;SDS011;34959;49.310;8.646;2024-03-07T08:12:09;4.50;;;2.17;;
49139;SDS011;34959;49.310;8.646;2024-03-07T08:14:34;2.75;;;2.10;;
49139;SDS011;34959;49.310;8.646;2024-03-07T08:17:00;4.00;;;2.42;;
49139;SDS011;34959;49.310;8.646;2024-03-07T08:19:25;4.10;;;2.03;;
49139;SDS011;34959;49.310;8.646;2024-03-07T08:21:50;4.30;;;2.17;;
49139;SDS011;34959;49.310;8.646;2024-03-07T08:24:16;2.95;;;2.17;;
49139;SDS011;34959;49.310;8.646;2024-03-07T08:26:41;3.05;;;2.33;;
49139;SDS011;34959;49.310;8.646;2024-03-07T08:29:09;3.35;;;2.28;;
49139;SDS011;34959;49.310;8.646;2024-03-07T08:31:35;4.20;;;2.17;;
49139;SDS011;34959;49.310;8.646;2024-03-07T08:34:00;4.22;;;1.90;;
49139;SDS011;34959;49.310;8.646;2024-03-07T08:36:25;3.70;;;2.17;;
49139;SDS011;34959;49.310;8.646;2024-03-07T08:38:51;2.42;;;2.00;;
49139;SDS011;34959;49.310;8.646;2024-03-07T08:41:16;3.00;;;2.03;;
49139;SDS011;34959;49.310;8.646;2024-03-07T08:43:43;3.00;;;2.05;;
49139;SDS011;34959;49.310;8.646;2024-03-07T08:46:09;2.92;;;2.20;;
49139;SDS011;34959;49.310;8.646;2024-03-07T08:48:35;3.40;;;2.50;;
49139;SDS011;34959;49.310;8.646;2024-03-07T08:51:00;5.43;;;2.28;;
49139;SDS011;34959;49.310;8.646;2024-03-07T08:53:26;4.65;;;2.28;;
49139;SDS011;34959;49.310;8.646;2024-03-07T08:55:51;2.63;;;1.67;;
49139;SDS011;34959;49.310;8.646;2024-03-07T08:58:16;3.28;;;2.30;;
49139;SDS011;34959;49.310;8.646;2024-03-07T09:00:42;2.70;;;2.00;;
49139;SDS011;34959;49.310;8.646;2024-03-07T09:03:10;3.53;;;2.08;;
49139;SDS011;34959;49.310;8.646;2024-03-07T09:05:35;3.28;;;2.28;;
49139;SDS011;34959;49.310;8.646;2024-03-07T09:08:01;3.15;;;2.10;;
49139;SDS011;34959;49.310;8.646;2024-03-07T09:10:27;2.40;;;1.92;;
49139;SDS011;34959;49.310;8.646;2024-03-07T09:12:54;3.17;;;2.00;;
49139;SDS011;34959;49.310;8.646;2024-03-07T09:15:20;2.65;;;2.13;;
49139;SDS011;34959;49.310;8.646;2024-03-07T09:17:46;2.20;;;1.88;;
49139;SDS011;34959;49.310;8.646;2024-03-07T09:20:13;6.75;;;2.00;;
49139;SDS011;34959;49.310;8.646;2024-03-07T09:22:46;2.47;;;1.80;;
49139;SDS011;34959;49.310;8.646;2024-03-07T09:25:16;2.70;;;2.22;;
49139;SDS011;34959;49.310;8.646;2024-03-07T09:27:41;3.10;;;2.03;;
49139;SDS011;34959;49.310;8.646;2024-03-07T09:30:07;2.90;;;2.03;;
49139;SDS011;34959;49.310;8.646;2024-03-07T09:32:38;7.05;;;2.08;;
49139;SDS011;34959;49.310;8.646;2024-03-07T09:35:04;2.58;;;1.90;;
49139;SDS011;34959;49.310;8.646;2024-03-07T09:37:32;2.35;;;2.10;;
49139;SDS011;34959;49.310;8.646;2024-03-07T09:39:57;2.10;;;1.83;;
49139;SDS011;34959;49.310;8.646;2024-03-07T09:42:23;2.22;;;2.00;;
49139;SDS011;34959;49.310;8.646;2024-03-07T09:44:50;3.28;;;2.08;;
49139;SDS011;34959;49.310;8.646;2024-03-07T09:47:16;2.30;;;2.10;;
49139;SDS011;34959;49.310;8.646;2024-03-07T09:49:43;20.33;;;9.18;;
49139;SDS011;34959;49.310;8.646;2024-03-07T09:52:09;13.73;;;11.35;;
49139;SDS011;34959;49.310;8.646;2024-03-07T09:54:36;19.20;;;13.55;;
49139;SDS011;34959;49.310;8.646;2024-03-07T09:57:03;14.50;;;12.38;;
49139;SDS011;34959;49.310;8.646;2024-03-07T09:59:32;14.38;;;9.75;;
49139;SDS011;34959;49.310;8.646;2024-03-07T10:02:00;13.52;;;8.93;;
49139;SDS011;34959;49.310;8.646;2024-03-07T10:04:31;11.02;;;8.40;;
49139;SDS011;34959;49.310;8.646;2024-03-07T10:07:10;9.13;;;7.60;;
49139;SDS011;34959;49.310;8.646;2024-03-07T10:09:39;12.70;;;7.15;;
49139;SDS011;34959;49.310;8.646;2024-03-07T10:12:05;9.13;;;5.75;;
49139;SDS011;34959;49.310;8.646;2024-03-07T10:14:34;9.02;;;6.18;;
49139;SDS011;34959;49.310;8.646;2024-03-07T10:17:02;8.95;;;6.00;;
49139;SDS011;34959;49.310;8.646;2024-03-07T10:19:28;7.57;;;5.93;;
49139;SDS011;34959;49.310;8.646;2024-03-07T10:21:54;7.68;;;5.57;;
49139;SDS011;34959;49.310;8.646;2024-03-07T10:24:24;7.35;;;5.22;;
49139;SDS011;34959;49.310;8.646;2024-03-07T10:26:50;6.07;;;5.30;;
49139;SDS011;34959;49.310;8.646;2024-03-07T10:29:16;6.40;;;5.20;;
49139;SDS011;34959;49.310;8.646;2024-03-07T10:31:43;6.40;;;5.18;;
49139;SDS011;34959;49.310;8.646;2024-03-07T10:34:10;7.22;;;4.93;;
49139;SDS011;34959;49.310;8.646;2024-03-07T10:36:36;6.65;;;5.07;;
49139;SDS011;34959;49.310;8.646;2024-03-07T10:39:02;8.63;;;4.82;;
49139;SDS011;34959;49.310;8.646;2024-03-07T10:44:15;6.25;;;4.65;;
49139;SDS011;34959;49.310;8.646;2024-03-07T10:46:46;6.38;;;5.00;;
49139;SDS011;34959;49.310;8.646;2024-03-07T10:49:18;9.18;;;4.93;;
49139;SDS011;34959;49.310;8.646;2024-03-07T10:51:51;7.25;;;4.50;;
49139;SDS011;34959;49.310;8.646;2024-03-07T10:54:47;6.18;;;5.07;;
49139;SDS011;34959;49.310;8.646;2024-03-07T10:57:30;5.75;;;4.40;;
49139;SDS011;34959;49.310;8.646;2024-03-07T11:00:00;6.93;;;4.63;;
49139;SDS011;34959;49.310;8.646;2024-03-07T11:02:47;5.57;;;4.47;;
49139;SDS011;34959;49.310;8.646;2024-03-07T11:05:18;7.35;;;4.20;;
49139;SDS011;34959;49.310;8.646;2024-03-07T11:07:44;6.47;;;4.40;;
49139;SDS011;34959;49.310;8.646;2024-03-07T11:10:09;5.13;;;4.38;;
49139;SDS011;34959;49.310;8.646;2024-03-07T11:12:37;6.53;;;4.10;;
49139;SDS011;34959;49.310;8.646;2024-03-07T11:15:04;5.47;;;3.83;;
49139;SDS011;34959;49.310;8.646;2024-03-07T11:17:31;5.47;;;4.47;;
49139;SDS011;34959;49.310;8.646;2024-03-07T11:22:49;7.03;;;4.32;;
49139;SDS011;34959;49.310;8.646;2024-03-07T11:25:17;4.65;;;4.15;;
49139;SDS011;34959;49.310;8.646;2024-03-07T11:28:00;5.55;;;4.22;;
49139;SDS011;34959;49.310;8.646;2024-03-07T11:30:27;5.88;;;4.07;;
49139;SDS011;34959;49.310;8.646;2024-03-07T11:32:53;6.03;;;4.60;;
49139;SDS011;34959;49.310;8.646;2024-03-07T11:35:40;5.22;;;4.22;;
49139;SDS011;34959;49.310;8.646;2024-03-07T11:38:08;5.80;;;4.00;;
49139;SDS011;34959;49.310;8.646;2024-03-07T11:43:04;5.32;;;4.05;;
49139;SDS011;34959;49.310;8.646;2024-03-07T11:45:30;4.72;;;4.20;;
49139;SDS011;34959;49.310;8.646;2024-03-07T11:47:59;5.15;;;4.05;;
49139;SDS011;34959;49.310;8.646;2024-03-07T11:50:29;6.15;;;4.20;;
49139;SDS011;34959;49.310;8.646;2024-03-07T11:53:00;6.13;;;4.40;;
49139;SDS011;34959;49.310;8.646;2024-03-07T11:55:26;5.18;;;4.20;;
49139;SDS011;34959;49.310;8.646;2024-03-07T11:57:53;5.05;;;4.20;;
49139;SDS011;34959;49.310;8.646;2024-03-07T12:00:19;4.90;;;4.40;;
49139;SDS011;34959;49.310;8.646;2024-03-07T12:02:45;5.75;;;4.15;;
49139;SDS011;34959;49.310;8.646;2024-03-07T12:05:13;8.07;;;4.50;;
49139;SDS011;34959;49.310;8.646;2024-03-07T12:07:40;5.10;;;4.07;;
49139;SDS011;34959;49.310;8.646;2024-03-07T12:10:07;7.25;;;3.85;;
49139;SDS011;34959;49.310;8.646;2024-03-07T12:12:38;5.30;;;4.25;;
49139;SDS011;34959;49.310;8.646;2024-03-07T12:15:04;4.50;;;3.80;;
49139;SDS011;34959;49.310;8.646;2024-03-07T12:17:34;8.88;;;4.40;;
49139;SDS011;34959;49.310;8.646;2024-03-07T12:20:00;5.22;;;4.18;;
49139;SDS011;34959;49.310;8.646;2024-03-07T12:22:29;5.28;;;3.47;;
49139;SDS011;34959;49.310;8.646;2024-03-07T12:25:01;5.57;;;4.10;;
49139;SDS011;34959;49.310;8.646;2024-03-07T12:27:33;5.70;;;3.85;;
49139;SDS011;34959;49.310;8.646;2024-03-07T12:29:58;4.72;;;3.80;;
49139;SDS011;34959;49.310;8.646;2024-03-07T12:32:27;5.93;;;4.03;;
49139;SDS011;34959;49.310;8.646;2024-03-07T12:34:52;4.35;;;3.90;;
49139;SDS011;34959;49.310;8.646;2024-03-07T12:37:18;4.40;;;3.95;;
49139;SDS011;34959;49.310;8.646;2024-03-07T12:39:43;4.63;;;3.65;;
49139;SDS011;34959;49.310;8.646;2024-03-07T12:42:18;4.30;;;3.70;;
49139;SDS011;34959;49.310;8.646;2024-03-07T12:44:46;4.55;;;3.72;;
49139;SDS011;34959;49.310;8.646;2024-03-07T12:47:12;4.82;;;3.65;;
49139;SDS011;34959;49.310;8.646;2024-03-07T12:49:41;5.25;;;3.95;;
49139;SDS011;34959;49.310;8.646;2024-03-07T12:52:07;4.75;;;4.13;;
49139;SDS011;34959;49.310;8.646;2024-03-07T12:54:36;4.30;;;3.90;;
49139;SDS011;34959;49.310;8.646;2024-03-07T12:57:06;4.20;;;3.70;;
49139;SDS011;34959;49.310;8.646;2024-03-07T12:59:35;4.53;;;3.97;;
49139;SDS011;34959;49.310;8.646;2024-03-07T13:02:07;4.20;;;3.80;;
49139;SDS011;34959;49.310;8.646;2024-03-07T13:04:33;5.38;;;3.80;;
49139;SDS011;34959;49.310;8.646;2024-03-07T13:06:58;4.03;;;3.60;;
49139;SDS011;34959;49.310;8.646;2024-03-07T13:09:29;4.25;;;3.85;;
49139;SDS011;34959;49.310;8.646;2024-03-07T13:11:56;4.63;;;4.07;;
49139;SDS011;34959;49.310;8.646;2024-03-07T13:14:22;4.30;;;3.63;;
49139;SDS011;34959;49.310;8.646;2024-03-07T13:16:48;4.00;;;3.40;;
49139;SDS011;34959;49.310;8.646;2024-03-07T13:19:15;4.47;;;3.72;;
49139;SDS011;34959;49.310;8.646;2024-03-07T13:21:45;4.78;;;3.45;;
49139;SDS011;34959;49.310;8.646;2024-03-07T13:24:11;6.60;;;3.92;;
49139;SDS011;34959;49.310;8.646;2024-03-07T13:26:37;4.18;;;3.78;;
49139;SDS011;34959;49.310;8.646;2024-03-07T13:29:02;3.78;;;3.20;;
49139;SDS011;34959;49.310;8.646;2024-03-07T13:31:28;5.10;;;3.92;;
49139;SDS011;34959;49.310;8.646;2024-03-07T13:33:55;4.57;;;3.30;;
49139;SDS011;34959;49.310;8.646;2024-03-07T13:36:20;5.15;;;3.30;;
49139;SDS011;34959;49.310;8.646;2024-03-07T13:38:50;3.92;;;3.38;;
49139;SDS011;34959;49.310;8.646;2024-03-07T13:41:18;4.10;;;3.60;;
49139;SDS011;34959;49.310;8.646;2024-03-07T13:43:44;4.78;;;3.30;;
49139;SDS011;34959;49.310;8.646;2024-03-07T13:46:10;4.05;;;3.10;;
49139;SDS011;34959;49.310;8.646;2024-03-07T13:48:37;4.40;;;3.33;;
49139;SDS011;34959;49.310;8.646;2024-03-07T13:51:03;4.20;;;3.65;;
49139;SDS011;34959;49.310;8.646;2024-03-07T13:53:32;3.67;;;3.30;;
49139;SDS011;34959;49.310;8.646;2024-03-07T13:56:12;3.90;;;3.28;;
49139;SDS011;34959;49.310;8.646;2024-03-07T14:15:17;3.72;;;3.33;;
49139;SDS011;34959;49.310;8.646;2024-03-07T14:32:08;3.17;;;2.80;;
49139;SDS011;34959;49.310;8.646;2024-03-07T14:34:41;3.95;;;3.22;;
49139;SDS011;34959;49.310;8.646;2024-03-07T14:37:21;3.47;;;3.10;;
49139;SDS011;34959;49.310;8.646;2024-03-07T14:39:48;6.53;;;3.38;;
49139;SDS011;34959;49.310;8.646;2024-03-07T14:42:16;4.65;;;3.22;;
49139;SDS011;34959;49.310;8.646;2024-03-07T14:44:45;3.88;;;3.28;;
49139;SDS011;34959;49.310;8.646;2024-03-07T14:47:13;3.80;;;3.40;;
49139;SDS011;34959;49.310;8.646;2024-03-07T14:49:39;3.78;;;3.38;;
49139;SDS011;34959;49.310;8.646;2024-03-07T14:52:05;3.60;;;3.08;;
49139;SDS011;34959;49.310;8.646;2024-03-07T14:54:38;3.28;;;2.97;;
49139;SDS011;34959;49.310;8.646;2024-03-07T14:57:07;3.70;;;3.28;;
49139;SDS011;34959;49.310;8.646;2024-03-07T14:59:35;4.50;;;3.13;;
49139;SDS011;34959;49.310;8.646;2024-03-07T15:02:01;5.25;;;3.50;;
49139;SDS011;34959;49.310;8.646;2024-03-07T15:04:29;4.00;;;3.35;;
49139;SDS011;34959;49.310;8.646;2024-03-07T15:06:58;5.03;;;3.42;;
49139;SDS011;34959;49.310;8.646;2024-03-07T15:09:24;3.92;;;3.08;;
49139;SDS011;34959;49.310;8.646;2024-03-07T15:11:49;4.22;;;3.10;;
49139;SDS011;34959;49.310;8.646;2024-03-07T15:14:15;3.70;;;3.00;;
49139;SDS011;34959;49.310;8.646;2024-03-07T15:16:40;3.50;;;2.95;;
49139;SDS011;34959;49.310;8.646;2024-03-07T15:19:06;3.88;;;3.47;;
49139;SDS011;34959;49.310;8.646;2024-03-07T15:21:33;4.10;;;3.10;;
49139;SDS011;34959;49.310;8.646;2024-03-07T15:23:59;4.38;;;3.45;;
49139;SDS011;34959;49.310;8.646;2024-03-07T15:26:27;3.88;;;3.50;;